sensor_id;sensor_type;location;lat;lon;timestamp;temperature;humidity
43987;DHT22;29650;47.378;8.300;2022-11-14T00:01:10;7.80;99.90
43987;DHT22;29650;47.378;8.300;2022-11-14T00:03:38;7.80;99.90
43987;DHT22;29650;47.378;8.300;2022-11-14T00:06:05;7.80;99.90
43987;DHT22;29650;47.378;8.300;2022-11-14T00:08:33;7.70;99.90
43987;DHT22;29650;47.378;8.300;2022-11-14T00:11:02;7.80;99.90
43987;DHT22;29650;47.378;8.300;2022-11-14T00:13:29;7.70;99.90
43987;DHT22;29650;47.378;8.300;2022-11-14T00:15:55;7.70;99.90
43987;DHT22;29650;47.378;8.300;2022-11-14T00:18:22;7.70;99.90
43987;DHT22;29650;47.378;8.300;2022-11-14T00:20:51;7.80;99.90
43987;DHT22;29650;47.378;8.300;2022-11-14T00:23:18;7.60;99.90
43987;DHT22;29650;47.378;8.300;2022-11-14T00:25:45;7.60;99.90
43987;DHT22;29650;47.378;8.300;2022-11-14T00:28:14;7.70;99.90
43987;DHT22;29650;47.378;8.300;2022-11-14T00:30:44;7.90;99.90
43987;DHT22;29650;47.378;8.300;2022-11-14T00:33:11;7.80;99.90
43987;DHT22;29650;47.378;8.300;2022-11-14T00:35:38;7.70;99.90
43987;DHT22;29650;47.378;8.300;2022-11-14T00:38:05;7.70;99.90
43987;DHT22;29650;47.378;8.300;2022-11-14T00:40:32;7.70;99.90
43987;DHT22;29650;47.378;8.300;2022-11-14T00:42:59;7.70;99.90
43987;DHT22;29650;47.378;8.300;2022-11-14T00:45:27;7.80;99.90
43987;DHT22;29650;47.378;8.300;2022-11-14T00:47:54;7.80;99.90
43987;DHT22;29650;47.378;8.300;2022-11-14T00:50:21;7.60;99.90
43987;DHT22;29650;47.378;8.300;2022-11-14T00:52:48;7.50;99.90
43987;DHT22;29650;47.378;8.300;2022-11-14T00:55:15;7.60;99.90
43987;DHT22;29650;47.378;8.300;2022-11-14T00:57:42;7.50;99.90
43987;DHT22;29650;47.378;8.300;2022-11-14T01:00:11;7.60;99.90
43987;DHT22;29650;47.378;8.300;2022-11-14T01:02:40;7.60;99.90
43987;DHT22;29650;47.378;8.300;2022-11-14T01:05:07;7.50;99.90
43987;DHT22;29650;47.378;8.300;2022-11-14T01:07:34;7.50;99.90
43987;DHT22;29650;47.378;8.300;2022-11-14T01:10:01;7.50;99.90
43987;DHT22;29650;47.378;8.300;2022-11-14T01:12:28;7.40;99.90
43987;DHT22;29650;47.378;8.300;2022-11-14T01:14:54;7.40;99.90
43987;DHT22;29650;47.378;8.300;2022-11-14T01:17:21;7.30;99.90
43987;DHT22;29650;47.378;8.300;2022-11-14T01:19:50;7.30;99.90
43987;DHT22;29650;47.378;8.300;2022-11-14T01:22:16;7.30;99.90
43987;DHT22;29650;47.378;8.300;2022-11-14T01:24:43;7.30;99.90
43987;DHT22;29650;47.378;8.300;2022-11-14T01:27:10;7.40;99.90
43987;DHT22;29650;47.378;8.300;2022-11-14T01:29:37;7.40;99.90
43987;DHT22;29650;47.378;8.300;2022-11-14T01:32:04;7.30;99.90
43987;DHT22;29650;47.378;8.300;2022-11-14T01:34:31;7.10;99.90
43987;DHT22;29650;47.378;8.300;2022-11-14T01:36:59;7.10;99.90
43987;DHT22;29650;47.378;8.300;2022-11-14T01:39:26;6.90;99.90
43987;DHT22;29650;47.378;8.300;2022-11-14T01:41:53;7.00;99.90
43987;DHT22;29650;47.378;8.300;2022-11-14T01:44:42;7.00;99.90
43987;DHT22;29650;47.378;8.300;2022-11-14T01:47:10;6.90;99.90
43987;DHT22;29650;47.378;8.300;2022-11-14T01:49:41;7.10;99.90
43987;DHT22;29650;47.378;8.300;2022-11-14T01:52:13;7.10;99.90
43987;DHT22;29650;47.378;8.300;2022-11-14T01:54:44;7.10;99.90
43987;DHT22;29650;47.378;8.300;2022-11-14T01:57:13;7.10;99.90
43987;DHT22;29650;47.378;8.300;2022-11-14T01:59:47;7.10;99.90
43987;DHT22;29650;47.378;8.300;2022-11-14T02:02:17;7.20;99.90
43987;DHT22;29650;47.378;8.300;2022-11-14T02:04:47;7.30;99.90
43987;DHT22;29650;47.378;8.300;2022-11-14T02:07:17;7.30;99.90
43987;DHT22;29650;47.378;8.300;2022-11-14T02:09:46;7.20;99.90
43987;DHT22;29650;47.378;8.300;2022-11-14T02:12:16;7.30;99.90
43987;DHT22;29650;47.378;8.300;2022-11-14T02:14:45;7.30;99.90
43987;DHT22;29650;47.378;8.300;2022-11-14T02:17:13;7.30;99.90
43987;DHT22;29650;47.378;8.300;2022-11-14T02:19:42;7.40;99.90
43987;DHT22;29650;47.378;8.300;2022-11-14T02:22:11;7.40;99.90
43987;DHT22;29650;47.378;8.300;2022-11-14T02:24:38;7.50;99.90
43987;DHT22;29650;47.378;8.300;2022-11-14T02:27:05;7.50;99.90
43987;DHT22;29650;47.378;8.300;2022-11-14T02:29:34;7.50;99.90
43987;DHT22;29650;47.378;8.300;2022-11-14T02:32:01;7.50;99.90
43987;DHT22;29650;47.378;8.300;2022-11-14T02:34:28;7.60;99.90
43987;DHT22;29650;47.378;8.300;2022-11-14T02:36:55;7.60;99.90
43987;DHT22;29650;47.378;8.300;2022-11-14T02:39:24;7.60;99.90
43987;DHT22;29650;47.378;8.300;2022-11-14T02:41:51;7.50;99.90
43987;DHT22;29650;47.378;8.300;2022-11-14T02:44:19;7.50;99.90
43987;DHT22;29650;47.378;8.300;2022-11-14T02:46:45;7.40;99.90
43987;DHT22;29650;47.378;8.300;2022-11-14T02:49:12;7.40;99.90
43987;DHT22;29650;47.378;8.300;2022-11-14T02:51:39;7.40;99.90
43987;DHT22;29650;47.378;8.300;2022-11-14T02:54:07;7.50;99.90
43987;DHT22;29650;47.378;8.300;2022-11-14T02:56:35;7.40;99.90
43987;DHT22;29650;47.378;8.300;2022-11-14T02:59:02;7.40;99.90
43987;DHT22;29650;47.378;8.300;2022-11-14T03:01:29;7.30;99.90
43987;DHT22;29650;47.378;8.300;2022-11-14T03:03:56;7.40;99.90
43987;DHT22;29650;47.378;8.300;2022-11-14T03:06:23;7.50;99.90
43987;DHT22;29650;47.378;8.300;2022-11-14T03:08:50;7.40;99.90
43987;DHT22;29650;47.378;8.300;2022-11-14T03:11:17;7.50;99.90
43987;DHT22;29650;47.378;8.300;2022-11-14T03:13:45;7.40;99.90
43987;DHT22;29650;47.378;8.300;2022-11-14T03:16:12;7.50;99.90
43987;DHT22;29650;47.378;8.300;2022-11-14T03:18:40;7.40;99.90
43987;DHT22;29650;47.378;8.300;2022-11-14T03:21:08;7.50;99.90
43987;DHT22;29650;47.378;8.300;2022-11-14T03:23:35;7.50;99.90
43987;DHT22;29650;47.378;8.300;2022-11-14T03:26:04;7.50;99.90
43987;DHT22;29650;47.378;8.300;2022-11-14T03:28:32;7.50;99.90
43987;DHT22;29650;47.378;8.300;2022-11-14T03:31:00;7.60;99.90
43987;DHT22;29650;47.378;8.300;2022-11-14T03:33:27;7.60;99.90
43987;DHT22;29650;47.378;8.300;2022-11-14T03:35:54;7.50;99.90
43987;DHT22;29650;47.378;8.300;2022-11-14T03:38:21;7.60;99.90
43987;DHT22;29650;47.378;8.300;2022-11-14T03:40:48;7.70;99.90
43987;DHT22;29650;47.378;8.300;2022-11-14T03:43:16;7.50;99.90
43987;DHT22;29650;47.378;8.300;2022-11-14T03:45:43;7.60;99.90
43987;DHT22;29650;47.378;8.300;2022-11-14T03:48:12;7.50;99.90
43987;DHT22;29650;47.378;8.300;2022-11-14T03:50:40;7.50;99.90
43987;DHT22;29650;47.378;8.300;2022-11-14T03:53:07;7.70;99.90
43987;DHT22;29650;47.378;8.300;2022-11-14T03:55:34;7.60;99.90
43987;DHT22;29650;47.378;8.300;2022-11-14T03:58:01;7.50;99.90
43987;DHT22;29650;47.378;8.300;2022-11-14T04:00:28;7.50;99.90
43987;DHT22;29650;47.378;8.300;2022-11-14T04:02:55;7.50;99.90
43987;DHT22;29650;47.378;8.300;2022-11-14T04:05:23;7.60;99.90
43987;DHT22;29650;47.378;8.300;2022-11-14T04:07:50;7.60;99.90
43987;DHT22;29650;47.378;8.300;2022-11-14T04:10:17;7.60;99.90
43987;DHT22;29650;47.378;8.300;2022-11-14T04:12:46;7.50;99.90
43987;DHT22;29650;47.378;8.300;2022-11-14T04:15:14;7.60;99.90
43987;DHT22;29650;47.378;8.300;2022-11-14T04:17:41;7.70;99.90
43987;DHT22;29650;47.378;8.300;2022-11-14T04:20:09;7.70;99.90
43987;DHT22;29650;47.378;8.300;2022-11-14T04:22:38;7.70;99.90
43987;DHT22;29650;47.378;8.300;2022-11-14T04:25:06;7.70;99.90
43987;DHT22;29650;47.378;8.300;2022-11-14T04:27:34;7.60;99.90
43987;DHT22;29650;47.378;8.300;2022-11-14T04:30:00;7.60;99.90
43987;DHT22;29650;47.378;8.300;2022-11-14T04:32:27;7.50;99.90
43987;DHT22;29650;47.378;8.300;2022-11-14T04:34:54;7.60;99.90
43987;DHT22;29650;47.378;8.300;2022-11-14T04:37:21;7.70;99.90
43987;DHT22;29650;47.378;8.300;2022-11-14T04:39:50;7.60;99.90
43987;DHT22;29650;47.378;8.300;2022-11-14T04:42:17;7.60;99.90
43987;DHT22;29650;47.378;8.300;2022-11-14T04:44:44;7.70;99.90
43987;DHT22;29650;47.378;8.300;2022-11-14T04:47:11;7.70;99.90
43987;DHT22;29650;47.378;8.300;2022-11-14T04:49:37;7.80;99.90
43987;DHT22;29650;47.378;8.300;2022-11-14T04:52:04;7.70;99.90
43987;DHT22;29650;47.378;8.300;2022-11-14T04:54:31;7.80;99.90
43987;DHT22;29650;47.378;8.300;2022-11-14T04:57:00;7.80;99.90
43987;DHT22;29650;47.378;8.300;2022-11-14T04:59:26;7.60;99.90
43987;DHT22;29650;47.378;8.300;2022-11-14T05:01:53;7.80;99.90
43987;DHT22;29650;47.378;8.300;2022-11-14T05:04:20;7.70;99.90
43987;DHT22;29650;47.378;8.300;2022-11-14T05:06:47;7.70;99.90
43987;DHT22;29650;47.378;8.300;2022-11-14T05:09:14;7.70;99.90
43987;DHT22;29650;47.378;8.300;2022-11-14T05:11:41;7.80;99.90
43987;DHT22;29650;47.378;8.300;2022-11-14T05:14:09;7.60;99.90
43987;DHT22;29650;47.378;8.300;2022-11-14T05:16:36;7.70;99.90
43987;DHT22;29650;47.378;8.300;2022-11-14T05:19:03;7.90;99.90
43987;DHT22;29650;47.378;8.300;2022-11-14T05:21:30;7.70;99.90
43987;DHT22;29650;47.378;8.300;2022-11-14T05:23:57;7.70;99.90
43987;DHT22;29650;47.378;8.300;2022-11-14T05:26:23;7.70;99.90
43987;DHT22;29650;47.378;8.300;2022-11-14T05:28:50;7.70;99.90
43987;DHT22;29650;47.378;8.300;2022-11-14T05:31:19;7.70;99.90
43987;DHT22;29650;47.378;8.300;2022-11-14T05:33:46;7.70;99.90
43987;DHT22;29650;47.378;8.300;2022-11-14T05:36:14;7.60;99.90
43987;DHT22;29650;47.378;8.300;2022-11-14T05:38:41;7.60;99.90
43987;DHT22;29650;47.378;8.300;2022-11-14T05:41:10;7.70;99.90
43987;DHT22;29650;47.378;8.300;2022-11-14T05:43:38;7.80;99.90
43987;DHT22;29650;47.378;8.300;2022-11-14T05:46:06;7.70;99.90
43987;DHT22;29650;47.378;8.300;2022-11-14T05:48:36;7.60;99.90
43987;DHT22;29650;47.378;8.300;2022-11-14T05:51:04;6.30;99.90
43987;DHT22;29650;47.378;8.300;2022-11-14T05:53:32;7.50;99.90
43987;DHT22;29650;47.378;8.300;2022-11-14T05:56:00;7.50;99.90
43987;DHT22;29650;47.378;8.300;2022-11-14T05:58:27;7.60;99.90
43987;DHT22;29650;47.378;8.300;2022-11-14T06:01:00;7.60;99.90
43987;DHT22;29650;47.378;8.300;2022-11-14T06:03:30;7.60;99.90
43987;DHT22;29650;47.378;8.300;2022-11-14T06:06:00;7.60;99.90
43987;DHT22;29650;47.378;8.300;2022-11-14T06:08:28;7.60;99.90
43987;DHT22;29650;47.378;8.300;2022-11-14T06:10:55;7.50;99.90
43987;DHT22;29650;47.378;8.300;2022-11-14T06:13:22;7.60;99.90
43987;DHT22;29650;47.378;8.300;2022-11-14T06:15:49;7.60;99.90
43987;DHT22;29650;47.378;8.300;2022-11-14T06:18:16;7.60;99.90
43987;DHT22;29650;47.378;8.300;2022-11-14T06:20:43;7.60;99.90
43987;DHT22;29650;47.378;8.300;2022-11-14T06:23:12;7.60;99.90
43987;DHT22;29650;47.378;8.300;2022-11-14T06:25:38;7.70;99.90
43987;DHT22;29650;47.378;8.300;2022-11-14T06:28:05;7.80;99.90
43987;DHT22;29650;47.378;8.300;2022-11-14T06:30:32;7.80;99.90
43987;DHT22;29650;47.378;8.300;2022-11-14T06:32:59;7.70;99.90
43987;DHT22;29650;47.378;8.300;2022-11-14T06:35:26;7.70;99.90
43987;DHT22;29650;47.378;8.300;2022-11-14T06:37:53;7.70;99.90
43987;DHT22;29650;47.378;8.300;2022-11-14T06:40:22;7.70;99.90
43987;DHT22;29650;47.378;8.300;2022-11-14T06:42:48;7.70;99.90
43987;DHT22;29650;47.378;8.300;2022-11-14T06:45:15;7.80;99.90
43987;DHT22;29650;47.378;8.300;2022-11-14T06:47:42;7.80;99.90
43987;DHT22;29650;47.378;8.300;2022-11-14T06:50:09;7.90;99.90
43987;DHT22;29650;47.378;8.300;2022-11-14T06:52:36;7.80;99.90
43987;DHT22;29650;47.378;8.300;2022-11-14T06:55:04;7.70;99.90
43987;DHT22;29650;47.378;8.300;2022-11-14T06:57:32;7.70;99.90
43987;DHT22;29650;47.378;8.300;2022-11-14T06:59:59;7.70;99.90
43987;DHT22;29650;47.378;8.300;2022-11-14T07:02:26;7.80;99.90
43987;DHT22;29650;47.378;8.300;2022-11-14T07:04:53;7.70;99.90
43987;DHT22;29650;47.378;8.300;2022-11-14T07:07:20;7.70;99.90
43987;DHT22;29650;47.378;8.300;2022-11-14T07:09:46;7.80;99.90
43987;DHT22;29650;47.378;8.300;2022-11-14T07:12:13;7.80;99.90
43987;DHT22;29650;47.378;8.300;2022-11-14T07:14:42;7.80;99.90
43987;DHT22;29650;47.378;8.300;2022-11-14T07:17:08;7.80;99.90
43987;DHT22;29650;47.378;8.300;2022-11-14T07:19:35;7.80;99.90
43987;DHT22;29650;47.378;8.300;2022-11-14T07:22:02;7.80;99.90
43987;DHT22;29650;47.378;8.300;2022-11-14T07:24:29;7.80;99.90
43987;DHT22;29650;47.378;8.300;2022-11-14T07:26:56;7.70;99.90
43987;DHT22;29650;47.378;8.300;2022-11-14T07:29:23;7.60;99.90
43987;DHT22;29650;47.378;8.300;2022-11-14T07:31:51;7.70;99.90
43987;DHT22;29650;47.378;8.300;2022-11-14T07:34:18;7.80;99.90
43987;DHT22;29650;47.378;8.300;2022-11-14T07:36:45;7.70;99.90
43987;DHT22;29650;47.378;8.300;2022-11-14T07:39:12;7.90;99.90
43987;DHT22;29650;47.378;8.300;2022-11-14T07:41:39;7.70;99.90
43987;DHT22;29650;47.378;8.300;2022-11-14T07:44:06;7.70;99.90
43987;DHT22;29650;47.378;8.300;2022-11-14T07:46:33;7.70;99.90
43987;DHT22;29650;47.378;8.300;2022-11-14T07:49:02;7.70;99.90
43987;DHT22;29650;47.378;8.300;2022-11-14T07:51:29;7.90;99.90
43987;DHT22;29650;47.378;8.300;2022-11-14T07:53:55;7.80;99.90
43987;DHT22;29650;47.378;8.300;2022-11-14T07:56:22;7.80;99.90
43987;DHT22;29650;47.378;8.300;2022-11-14T07:58:50;7.90;99.90
43987;DHT22;29650;47.378;8.300;2022-11-14T08:01:17;8.00;99.90
43987;DHT22;29650;47.378;8.300;2022-11-14T08:03:44;8.00;99.90
43987;DHT22;29650;47.378;8.300;2022-11-14T08:06:14;8.10;99.90
43987;DHT22;29650;47.378;8.300;2022-11-14T08:08:41;8.10;99.90
43987;DHT22;29650;47.378;8.300;2022-11-14T08:11:08;8.00;99.90
43987;DHT22;29650;47.378;8.300;2022-11-14T08:13:35;8.10;99.90
43987;DHT22;29650;47.378;8.300;2022-11-14T08:16:06;8.00;99.90
43987;DHT22;29650;47.378;8.300;2022-11-14T08:18:34;8.00;99.90
43987;DHT22;29650;47.378;8.300;2022-11-14T08:21:03;8.00;99.90
43987;DHT22;29650;47.378;8.300;2022-11-14T08:23:31;8.00;99.90
43987;DHT22;29650;47.378;8.300;2022-11-14T08:25:58;8.00;99.90
43987;DHT22;29650;47.378;8.300;2022-11-14T08:28:25;8.00;99.90
43987;DHT22;29650;47.378;8.300;2022-11-14T08:30:56;8.10;99.90
43987;DHT22;29650;47.378;8.300;2022-11-14T08:33:23;8.00;99.90
43987;DHT22;29650;47.378;8.300;2022-11-14T08:35:50;8.10;99.90
43987;DHT22;29650;47.378;8.300;2022-11-14T08:38:17;8.30;99.90
43987;DHT22;29650;47.378;8.300;2022-11-14T08:40:46;8.30;99.90
43987;DHT22;29650;47.378;8.300;2022-11-14T08:43:12;8.30;99.90
43987;DHT22;29650;47.378;8.300;2022-11-14T08:45:39;8.40;99.90
43987;DHT22;29650;47.378;8.300;2022-11-14T08:48:06;8.40;99.90
43987;DHT22;29650;47.378;8.300;2022-11-14T08:50:33;8.40;99.90
43987;DHT22;29650;47.378;8.300;2022-11-14T08:53:00;8.40;99.90
43987;DHT22;29650;47.378;8.300;2022-11-14T08:55:27;8.40;99.90
43987;DHT22;29650;47.378;8.300;2022-11-14T08:57:55;8.40;99.90
43987;DHT22;29650;47.378;8.300;2022-11-14T09:00:22;8.50;99.90
43987;DHT22;29650;47.378;8.300;2022-11-14T09:02:49;8.60;99.90
43987;DHT22;29650;47.378;8.300;2022-11-14T09:05:16;8.60;99.90
43987;DHT22;29650;47.378;8.300;2022-11-14T09:07:43;8.60;99.90
43987;DHT22;29650;47.378;8.300;2022-11-14T09:10:10;8.60;99.90
43987;DHT22;29650;47.378;8.300;2022-11-14T09:12:37;8.70;99.90
43987;DHT22;29650;47.378;8.300;2022-11-14T09:15:07;8.70;99.90
43987;DHT22;29650;47.378;8.300;2022-11-14T09:17:34;8.80;99.90
43987;DHT22;29650;47.378;8.300;2022-11-14T09:20:01;8.80;99.90
43987;DHT22;29650;47.378;8.300;2022-11-14T09:22:28;8.80;99.90
43987;DHT22;29650;47.378;8.300;2022-11-14T09:24:56;8.90;99.90
43987;DHT22;29650;47.378;8.300;2022-11-14T09:27:25;8.90;99.90
43987;DHT22;29650;47.378;8.300;2022-11-14T09:29:52;8.90;99.90
43987;DHT22;29650;47.378;8.300;2022-11-14T09:32:20;8.90;99.90
43987;DHT22;29650;47.378;8.300;2022-11-14T09:34:47;9.00;99.90
43987;DHT22;29650;47.378;8.300;2022-11-14T09:37:14;9.00;99.90
43987;DHT22;29650;47.378;8.300;2022-11-14T09:39:41;9.10;99.90
43987;DHT22;29650;47.378;8.300;2022-11-14T09:42:27;9.20;99.90
43987;DHT22;29650;47.378;8.300;2022-11-14T09:44:57;9.30;99.90
43987;DHT22;29650;47.378;8.300;2022-11-14T09:47:29;9.30;99.90
43987;DHT22;29650;47.378;8.300;2022-11-14T09:50:05;9.40;99.90
43987;DHT22;29650;47.378;8.300;2022-11-14T09:52:35;9.40;99.90
43987;DHT22;29650;47.378;8.300;2022-11-14T09:55:10;9.40;99.90
43987;DHT22;29650;47.378;8.300;2022-11-14T09:57:39;9.40;99.90
43987;DHT22;29650;47.378;8.300;2022-11-14T10:00:13;9.50;99.90
43987;DHT22;29650;47.378;8.300;2022-11-14T10:02:49;9.60;99.90
43987;DHT22;29650;47.378;8.300;2022-11-14T10:05:35;9.60;99.90
43987;DHT22;29650;47.378;8.300;2022-11-14T10:08:27;9.50;99.90
43987;DHT22;29650;47.378;8.300;2022-11-14T10:10:59;9.50;99.90
43987;DHT22;29650;47.378;8.300;2022-11-14T10:13:41;9.50;99.90
43987;DHT22;29650;47.378;8.300;2022-11-14T10:16:17;9.50;99.90
43987;DHT22;29650;47.378;8.300;2022-11-14T10:19:06;9.40;99.90
43987;DHT22;29650;47.378;8.300;2022-11-14T10:21:45;9.40;99.90
43987;DHT22;29650;47.378;8.300;2022-11-14T10:24:26;9.20;99.90
43987;DHT22;29650;47.378;8.300;2022-11-14T10:27:00;9.30;99.90
43987;DHT22;29650;47.378;8.300;2022-11-14T10:29:55;9.40;99.90
43987;DHT22;29650;47.378;8.300;2022-11-14T10:32:37;9.50;99.90
43987;DHT22;29650;47.378;8.300;2022-11-14T10:35:12;9.60;99.90
43987;DHT22;29650;47.378;8.300;2022-11-14T10:37:48;9.60;99.90
43987;DHT22;29650;47.378;8.300;2022-11-14T10:40:21;9.80;99.90
43987;DHT22;29650;47.378;8.300;2022-11-14T10:42:50;9.80;99.90
43987;DHT22;29650;47.378;8.300;2022-11-14T10:45:24;9.90;99.90
43987;DHT22;29650;47.378;8.300;2022-11-14T10:47:56;9.80;99.90
43987;DHT22;29650;47.378;8.300;2022-11-14T10:50:31;10.10;99.90
43987;DHT22;29650;47.378;8.300;2022-11-14T10:53:04;10.10;99.90
43987;DHT22;29650;47.378;8.300;2022-11-14T10:55:32;10.20;99.90
43987;DHT22;29650;47.378;8.300;2022-11-14T10:57:59;10.30;99.90
43987;DHT22;29650;47.378;8.300;2022-11-14T11:00:26;10.80;99.90
43987;DHT22;29650;47.378;8.300;2022-11-14T11:02:54;10.50;99.90
43987;DHT22;29650;47.378;8.300;2022-11-14T11:05:23;10.30;99.90
43987;DHT22;29650;47.378;8.300;2022-11-14T11:07:51;10.20;99.90
43987;DHT22;29650;47.378;8.300;2022-11-14T11:10:40;10.30;99.90
43987;DHT22;29650;47.378;8.300;2022-11-14T11:13:30;10.20;99.90
43987;DHT22;29650;47.378;8.300;2022-11-14T11:15:59;10.30;99.90
43987;DHT22;29650;47.378;8.300;2022-11-14T11:18:28;10.30;99.90
43987;DHT22;29650;47.378;8.300;2022-11-14T11:21:05;10.30;99.90
43987;DHT22;29650;47.378;8.300;2022-11-14T11:23:36;10.30;99.90
43987;DHT22;29650;47.378;8.300;2022-11-14T11:26:21;10.40;99.90
43987;DHT22;29650;47.378;8.300;2022-11-14T11:29:05;10.40;99.90
43987;DHT22;29650;47.378;8.300;2022-11-14T11:31:50;10.40;99.90
43987;DHT22;29650;47.378;8.300;2022-11-14T11:34:21;10.40;99.90
43987;DHT22;29650;47.378;8.300;2022-11-14T11:36:52;10.40;99.90
43987;DHT22;29650;47.378;8.300;2022-11-14T11:39:26;10.40;99.90
43987;DHT22;29650;47.378;8.300;2022-11-14T11:41:57;10.50;99.90
43987;DHT22;29650;47.378;8.300;2022-11-14T11:44:32;10.60;99.90
43987;DHT22;29650;47.378;8.300;2022-11-14T11:47:02;10.60;99.90
43987;DHT22;29650;47.378;8.300;2022-11-14T11:49:38;10.60;99.90
43987;DHT22;29650;47.378;8.300;2022-11-14T11:52:12;10.60;99.90
43987;DHT22;29650;47.378;8.300;2022-11-14T11:54:49;10.70;99.90
43987;DHT22;29650;47.378;8.300;2022-11-14T11:57:31;10.80;99.90
43987;DHT22;29650;47.378;8.300;2022-11-14T12:00:05;10.80;99.90
43987;DHT22;29650;47.378;8.300;2022-11-14T12:02:32;10.80;99.90
43987;DHT22;29650;47.378;8.300;2022-11-14T12:05:01;10.80;99.90
43987;DHT22;29650;47.378;8.300;2022-11-14T12:07:37;10.90;99.90
43987;DHT22;29650;47.378;8.300;2022-11-14T12:10:14;10.90;99.90
43987;DHT22;29650;47.378;8.300;2022-11-14T12:13:21;10.90;99.90
43987;DHT22;29650;47.378;8.300;2022-11-14T12:16:07;11.00;99.90
43987;DHT22;29650;47.378;8.300;2022-11-14T12:18:52;11.10;99.90
43987;DHT22;29650;47.378;8.300;2022-11-14T12:21:36;11.20;99.90
43987;DHT22;29650;47.378;8.300;2022-11-14T12:27:29;11.30;99.90
43987;DHT22;29650;47.378;8.300;2022-11-14T12:30:09;11.30;99.90
43987;DHT22;29650;47.378;8.300;2022-11-14T12:32:42;11.40;99.90
43987;DHT22;29650;47.378;8.300;2022-11-14T12:35:17;11.30;99.90
43987;DHT22;29650;47.378;8.300;2022-11-14T12:37:48;11.20;99.90
43987;DHT22;29650;47.378;8.300;2022-11-14T12:40:30;11.30;99.90
43987;DHT22;29650;47.378;8.300;2022-11-14T12:43:00;11.30;99.90
43987;DHT22;29650;47.378;8.300;2022-11-14T12:45:55;11.30;99.90
43987;DHT22;29650;47.378;8.300;2022-11-14T12:48:30;11.30;99.90
43987;DHT22;29650;47.378;8.300;2022-11-14T12:50:58;11.20;99.90
43987;DHT22;29650;47.378;8.300;2022-11-14T12:53:39;11.20;99.90
43987;DHT22;29650;47.378;8.300;2022-11-14T12:59:27;11.20;99.90
43987;DHT22;29650;47.378;8.300;2022-11-14T13:05:20;11.20;99.90
43987;DHT22;29650;47.378;8.300;2022-11-14T13:08:00;11.20;99.90
43987;DHT22;29650;47.378;8.300;2022-11-14T13:10:36;11.20;99.90
43987;DHT22;29650;47.378;8.300;2022-11-14T13:13:06;11.10;99.90
43987;DHT22;29650;47.378;8.300;2022-11-14T13:15:53;11.20;99.90
43987;DHT22;29650;47.378;8.300;2022-11-14T13:18:50;11.10;99.90
43987;DHT22;29650;47.378;8.300;2022-11-14T13:21:36;11.10;99.90
43987;DHT22;29650;47.378;8.300;2022-11-14T13:24:13;11.10;99.90
43987;DHT22;29650;47.378;8.300;2022-11-14T13:26:52;11.10;99.90
43987;DHT22;29650;47.378;8.300;2022-11-14T13:29:52;11.10;99.90
43987;DHT22;29650;47.378;8.300;2022-11-14T13:42:18;11.10;99.90
43987;DHT22;29650;47.378;8.300;2022-11-14T13:50:54;10.90;99.90
43987;DHT22;29650;47.378;8.300;2022-11-14T13:53:23;10.90;99.90
43987;DHT22;29650;47.378;8.300;2022-11-14T13:55:56;11.00;99.90
43987;DHT22;29650;47.378;8.300;2022-11-14T13:58:41;11.00;99.90
43987;DHT22;29650;47.378;8.300;2022-11-14T14:01:21;11.00;99.90
43987;DHT22;29650;47.378;8.300;2022-11-14T14:04:02;11.10;99.90
43987;DHT22;29650;47.378;8.300;2022-11-14T14:06:42;11.10;99.90
43987;DHT22;29650;47.378;8.300;2022-11-14T14:09:20;11.10;99.90
43987;DHT22;29650;47.378;8.300;2022-11-14T14:12:03;11.00;99.90
43987;DHT22;29650;47.378;8.300;2022-11-14T14:17:31;10.90;99.90
43987;DHT22;29650;47.378;8.300;2022-11-14T14:20:13;10.90;99.90
43987;DHT22;29650;47.378;8.300;2022-11-14T14:22:51;11.00;99.90
43987;DHT22;29650;47.378;8.300;2022-11-14T14:25:27;11.00;99.90
43987;DHT22;29650;47.378;8.300;2022-11-14T14:28:05;11.00;99.90
43987;DHT22;29650;47.378;8.300;2022-11-14T14:30:35;10.90;99.90
43987;DHT22;29650;47.378;8.300;2022-11-14T14:33:12;11.00;99.90
43987;DHT22;29650;47.378;8.300;2022-11-14T14:35:48;11.00;99.90
43987;DHT22;29650;47.378;8.300;2022-11-14T14:38:23;11.00;99.90
43987;DHT22;29650;47.378;8.300;2022-11-14T14:40:52;11.00;99.90
43987;DHT22;29650;47.378;8.300;2022-11-14T14:43:27;11.00;99.90
43987;DHT22;29650;47.378;8.300;2022-11-14T14:45:56;11.10;99.90
43987;DHT22;29650;47.378;8.300;2022-11-14T14:48:26;11.10;99.90
43987;DHT22;29650;47.378;8.300;2022-11-14T14:50:54;11.00;99.90
43987;DHT22;29650;47.378;8.300;2022-11-14T14:53:24;11.00;99.90
43987;DHT22;29650;47.378;8.300;2022-11-14T14:55:54;11.00;99.90
43987;DHT22;29650;47.378;8.300;2022-11-14T14:58:26;11.00;99.90
43987;DHT22;29650;47.378;8.300;2022-11-14T15:00:56;11.00;99.90
43987;DHT22;29650;47.378;8.300;2022-11-14T15:03:26;10.90;99.90
43987;DHT22;29650;47.378;8.300;2022-11-14T15:06:00;10.80;99.90
43987;DHT22;29650;47.378;8.300;2022-11-14T15:08:29;10.80;99.90
43987;DHT22;29650;47.378;8.300;2022-11-14T15:10:58;10.70;99.90
43987;DHT22;29650;47.378;8.300;2022-11-14T15:13:28;10.70;99.90
43987;DHT22;29650;47.378;8.300;2022-11-14T15:15:56;10.60;99.90
43987;DHT22;29650;47.378;8.300;2022-11-14T15:18:25;10.60;99.90
43987;DHT22;29650;47.378;8.300;2022-11-14T15:21:22;10.60;99.90
43987;DHT22;29650;47.378;8.300;2022-11-14T15:23:59;10.60;99.90
43987;DHT22;29650;47.378;8.300;2022-11-14T15:26:28;10.60;99.90
43987;DHT22;29650;47.378;8.300;2022-11-14T15:29:06;10.60;99.90
43987;DHT22;29650;47.378;8.300;2022-11-14T15:31:44;10.60;99.90
43987;DHT22;29650;47.378;8.300;2022-11-14T15:34:23;10.70;99.90
43987;DHT22;29650;47.378;8.300;2022-11-14T15:40:14;10.60;99.90
43987;DHT22;29650;47.378;8.300;2022-11-14T15:42:41;10.50;99.90
43987;DHT22;29650;47.378;8.300;2022-11-14T15:45:20;10.60;99.90
43987;DHT22;29650;47.378;8.300;2022-11-14T15:47:47;10.60;99.90
43987;DHT22;29650;47.378;8.300;2022-11-14T15:50:26;10.60;99.90
43987;DHT22;29650;47.378;8.300;2022-11-14T15:52:57;10.60;99.90
43987;DHT22;29650;47.378;8.300;2022-11-14T15:55:26;10.60;99.90
43987;DHT22;29650;47.378;8.300;2022-11-14T15:57:53;10.60;99.90
43987;DHT22;29650;47.378;8.300;2022-11-14T16:00:20;10.60;99.90
43987;DHT22;29650;47.378;8.300;2022-11-14T16:02:50;10.50;99.90
43987;DHT22;29650;47.378;8.300;2022-11-14T16:05:22;10.50;99.90
43987;DHT22;29650;47.378;8.300;2022-11-14T16:07:50;10.50;99.90
43987;DHT22;29650;47.378;8.300;2022-11-14T16:10:17;10.50;99.90
43987;DHT22;29650;47.378;8.300;2022-11-14T16:12:46;10.40;99.90
43987;DHT22;29650;47.378;8.300;2022-11-14T16:15:13;10.30;99.90
43987;DHT22;29650;47.378;8.300;2022-11-14T16:17:42;10.30;99.90
43987;DHT22;29650;47.378;8.300;2022-11-14T16:20:13;10.30;99.90
43987;DHT22;29650;47.378;8.300;2022-11-14T16:22:41;10.40;99.90
43987;DHT22;29650;47.378;8.300;2022-11-14T16:25:13;10.30;99.90
43987;DHT22;29650;47.378;8.300;2022-11-14T16:27:42;10.40;99.90
43987;DHT22;29650;47.378;8.300;2022-11-14T16:30:12;10.40;99.90
43987;DHT22;29650;47.378;8.300;2022-11-14T16:32:39;10.30;99.90
43987;DHT22;29650;47.378;8.300;2022-11-14T16:35:10;10.20;99.90